Time;durP1;ratioP1;P1;durP2;ratioP2;P2;SDS_P1;SDS_P2;PMS_P1;PMS_P2;Temp;Humidity;BMP_temperature;BMP_pressure;BME280_temperature;BME280_humidity;BME280_pressure;Samples;Min_cycle;Max_cycle;Signal;HPM_P1;HPM_P2
2021/10/06 00:01:48;;;;;;;;;;;13.80;99.90;;;;;;4919194;29;19933;-76
2021/10/06 00:04:37;;;;;;;;;;;13.80;99.90;;;;;;4910953;29;19926;-75
2021/10/06 00:07:26;;;;;;;;;;;13.80;99.90;;;;;;4924118;29;19927;-75
2021/10/06 00:10:14;;;;;;;;;;;13.70;99.90;;;;;;4921927;29;19934;-76
2021/10/06 00:13:04;;;;;;;;;;;13.80;99.90;;;;;;4928119;29;19927;-76
2021/10/06 00:15:53;;;;;;;;;;;13.70;99.90;;;;;;4918375;28;19927;-76
2021/10/06 00:18:42;;;;;;;;;;;13.70;99.90;;;;;;4925195;29;20033;-76
2021/10/06 00:21:31;;;;;;;;;;;13.70;99.90;;;;;;4926535;29;21329;-76
2021/10/06 00:24:23;;;;;;;;;;;13.70;99.90;;;;;;4925716;29;19927;-75
2021/10/06 00:27:11;;;;;;;;;;;13.60;99.90;;;;;;4927551;29;19935;-75
2021/10/06 00:30:02;;;;;;;;;;;13.60;99.90;;;;;;4926456;29;19927;-76
2021/10/06 00:32:51;;;;;;;;;;;13.50;99.90;;;;;;4927591;29;20377;-76
2021/10/06 00:35:41;;;;;;;;;;;13.50;99.90;;;;;;4923884;29;19931;-74
2021/10/06 00:38:29;;;;;;;;;;;13.50;99.90;;;;;;4925654;29;19930;-75
2021/10/06 00:41:18;;;;;;;;;;;13.50;99.90;;;;;;4932008;28;19934;-75
2021/10/06 00:44:07;;;;;;;;;;;13.40;99.90;;;;;;4928805;29;19927;-77
2021/10/06 00:46:58;;;;;;;;;;;13.40;99.90;;;;;;4928469;29;19927;-75
2021/10/06 00:49:46;;;;;;;;;;;13.30;99.90;;;;;;4937554;29;19971;-76
2021/10/06 00:52:35;;;;;;;;;;;13.40;99.90;;;;;;4931521;29;19927;-76
2021/10/06 00:55:24;;;;;;;;;;;13.30;99.90;;;;;;4938796;29;19962;-75
2021/10/06 00:58:14;;;;;;;;;;;13.30;99.90;;;;;;4923776;29;19983;-75
2021/10/06 01:04:17;;;;;;;;;;;13.30;99.90;;;;;;4909538;29;19928;-76
2021/10/06 01:07:06;;;;;;;;;;;13.20;99.90;;;;;;4911709;29;20399;-76
2021/10/06 01:09:55;;;;;;;;;;;13.20;99.90;;;;;;4907798;29;19938;-75
2021/10/06 01:12:45;;;;;;;;;;;13.20;99.90;;;;;;4906381;29;20006;-75
2021/10/06 01:18:47;;;;;;;;;;;13.10;99.90;;;;;;4910743;29;19935;-75
2021/10/06 01:21:37;;;;;;;;;;;13.10;99.90;;;;;;4908191;29;19938;-76
2021/10/06 01:24:27;;;;;;;;;;;13.10;99.90;;;;;;4906364;29;19928;-75
2021/10/06 01:27:16;;;;;;;;;;;13.10;99.90;;;;;;4908532;29;19975;-75
2021/10/06 01:30:06;;;;;;;;;;;13.10;99.90;;;;;;4901497;29;20441;-76
2021/10/06 01:32:55;;;;;;;;;;;13.10;99.90;;;;;;4919035;29;19931;-76
2021/10/06 01:42:11;;;;;;;;;;;13.10;99.90;;;;;;4909499;29;19934;-76
2021/10/06 01:45:25;;;;;;;;;;;13.10;99.90;;;;;;4914482;29;19931;-75
2021/10/06 01:48:14;;;;;;;;;;;13.10;99.90;;;;;;4908121;29;19974;-76
2021/10/06 01:51:02;;;;;;;;;;;13.00;99.90;;;;;;4895716;29;20304;-76
2021/10/06 01:54:03;;;;;;;;;;;13.00;99.90;;;;;;4906206;29;20002;-76
2021/10/06 01:56:51;;;;;;;;;;;13.00;99.90;;;;;;4907870;29;19928;-76
2021/10/06 01:59:41;;;;;;;;;;;13.00;99.90;;;;;;4909736;29;20032;-76
2021/10/06 02:02:30;;;;;;;;;;;13.00;99.90;;;;;;4913898;29;20070;-77
2021/10/06 02:05:19;;;;;;;;;;;13.00;99.90;;;;;;4926159;29;20291;-76
2021/10/06 02:08:08;;;;;;;;;;;13.10;99.90;;;;;;4930071;29;19981;-76
2021/10/06 02:10:58;;;;;;;;;;;13.00;99.90;;;;;;4936437;29;19935;-74
2021/10/06 02:13:47;;;;;;;;;;;13.00;99.90;;;;;;4933655;29;19927;-74
2021/10/06 02:16:41;;;;;;;;;;;13.00;99.90;;;;;;4929681;28;20018;-75
2021/10/06 02:19:30;;;;;;;;;;;13.00;99.90;;;;;;4934465;29;19937;-75
2021/10/06 02:22:18;;;;;;;;;;;13.00;99.90;;;;;;4925126;29;19927;-75
2021/10/06 02:25:07;;;;;;;;;;;13.00;99.90;;;;;;4925672;29;19927;-77
2021/10/06 02:27:58;;;;;;;;;;;13.00;99.90;;;;;;4926852;29;20219;-75
2021/10/06 02:30:49;;;;;;;;;;;12.90;99.90;;;;;;4918271;29;19927;-76
2021/10/06 02:33:38;;;;;;;;;;;12.90;99.90;;;;;;4924469;29;19927;-75
2021/10/06 02:36:28;;;;;;;;;;;12.90;99.90;;;;;;4924505;29;20213;-77
2021/10/06 02:39:17;;;;;;;;;;;12.90;99.90;;;;;;4926644;29;19927;-76
2021/10/06 02:42:06;;;;;;;;;;;12.90;99.90;;;;;;4924211;29;20013;-76
2021/10/06 02:44:56;;;;;;;;;;;12.90;99.90;;;;;;4930224;29;19931;-76
2021/10/06 02:48:09;;;;;;;;;;;12.90;99.90;;;;;;4928480;28;19927;-76
2021/10/06 02:50:58;;;;;;;;;;;12.90;99.90;;;;;;4926365;29;19950;-76
2021/10/06 02:53:47;;;;;;;;;;;12.90;99.90;;;;;;4927740;29;19927;-77
2021/10/06 02:56:35;;;;;;;;;;;12.90;99.90;;;;;;4923681;29;19938;-76
2021/10/06 02:59:24;;;;;;;;;;;12.90;99.90;;;;;;4923946;29;19935;-76
2021/10/06 03:02:14;;;;;;;;;;;12.90;99.90;;;;;;4920076;28;19938;-75
2021/10/06 03:05:04;;;;;;;;;;;13.00;99.90;;;;;;4926613;28;19927;-75
2021/10/06 03:07:52;;;;;;;;;;;13.00;99.90;;;;;;4926694;29;19927;-76
2021/10/06 03:10:41;;;;;;;;;;;13.00;99.90;;;;;;4927626;29;19927;-77
2021/10/06 03:13:30;;;;;;;;;;;12.90;99.90;;;;;;4928911;29;19927;-75
2021/10/06 03:16:19;;;;;;;;;;;12.90;99.90;;;;;;4917782;28;19979;-76
2021/10/06 03:19:09;;;;;;;;;;;12.90;99.90;;;;;;4913650;29;20014;-76
2021/10/06 03:21:58;;;;;;;;;;;12.90;99.90;;;;;;4923571;29;20343;-76
2021/10/06 03:24:47;;;;;;;;;;;12.90;99.90;;;;;;4924744;28;19950;-76
2021/10/06 03:27:36;;;;;;;;;;;12.90;99.90;;;;;;4927650;29;19927;-76
2021/10/06 03:30:25;;;;;;;;;;;12.90;99.90;;;;;;4922567;29;19927;-76
2021/10/06 03:33:14;;;;;;;;;;;12.80;99.90;;;;;;4926148;29;19935;-77
2021/10/06 03:36:12;;;;;;;;;;;12.80;99.90;;;;;;4926936;29;20283;-76
2021/10/06 03:39:25;;;;;;;;;;;12.90;99.90;;;;;;4925570;29;19927;-75
2021/10/06 03:42:13;;;;;;;;;;;12.90;99.90;;;;;;4927080;29;19931;-76
2021/10/06 03:48:14;;;;;;;;;;;12.90;99.90;;;;;;4928584;28;19927;-75
2021/10/06 03:51:10;;;;;;;;;;;12.90;99.90;;;;;;4928222;28;20006;-76
2021/10/06 03:53:59;;;;;;;;;;;12.90;99.90;;;;;;4929651;29;19926;-75
2021/10/06 03:56:47;;;;;;;;;;;12.90;99.90;;;;;;4922735;29;19927;-75
2021/10/06 03:59:36;;;;;;;;;;;12.90;99.90;;;;;;4930071;29;19947;-76
2021/10/06 04:02:25;;;;;;;;;;;12.90;99.90;;;;;;4925874;29;19931;-75
2021/10/06 04:05:14;;;;;;;;;;;12.90;99.90;;;;;;4927188;29;19927;-75
2021/10/06 04:08:04;;;;;;;;;;;12.90;99.90;;;;;;4922726;29;19934;-76
2021/10/06 04:10:53;;;;;;;;;;;12.90;99.90;;;;;;4933501;29;19934;-75
2021/10/06 04:13:41;;;;;;;;;;;12.90;99.90;;;;;;4933592;28;19935;-76
2021/10/06 04:16:30;;;;;;;;;;;12.90;99.90;;;;;;4932304;29;19933;-75
2021/10/06 04:19:19;;;;;;;;;;;12.90;99.90;;;;;;4940141;29;19927;-76
2021/10/06 04:22:11;;;;;;;;;;;12.90;99.90;;;;;;4935315;29;20292;-75
2021/10/06 04:25:01;;;;;;;;;;;12.80;99.90;;;;;;4933987;29;19941;-77
2021/10/06 04:27:50;;;;;;;;;;;12.80;99.90;;;;;;4937626;29;20269;-77
2021/10/06 04:30:39;;;;;;;;;;;12.90;99.90;;;;;;4934691;28;20023;-76
2021/10/06 04:33:27;;;;;;;;;;;12.80;99.90;;;;;;4925236;29;20335;-76
2021/10/06 04:36:18;;;;;;;;;;;12.80;99.90;;;;;;4931670;29;19936;-75
2021/10/06 04:39:09;;;;;;;;;;;12.80;99.90;;;;;;4932037;29;20078;-76
2021/10/06 04:41:59;;;;;;;;;;;12.80;99.90;;;;;;4935490;29;19933;-76
2021/10/06 04:44:49;;;;;;;;;;;12.80;99.90;;;;;;4939755;29;19998;-76
2021/10/06 04:47:38;;;;;;;;;;;12.80;99.90;;;;;;4925716;29;19927;-75
2021/10/06 04:50:29;;;;;;;;;;;12.80;99.90;;;;;;4942910;29;19930;-78
2021/10/06 04:53:18;;;;;;;;;;;12.80;99.90;;;;;;4928110;29;19939;-78
2021/10/06 04:56:10;;;;;;;;;;;12.80;99.90;;;;;;4936491;29;19934;-78
2021/10/06 04:59:03;;;;;;;;;;;12.80;99.90;;;;;;4936643;29;19931;-78
2021/10/06 05:05:06;;;;;;;;;;;12.70;99.90;;;;;;4914602;29;19927;-78
2021/10/06 05:07:54;;;;;;;;;;;12.70;99.90;;;;;;4917902;29;19943;-78
2021/10/06 05:10:43;;;;;;;;;;;12.70;99.90;;;;;;4923116;28;19959;-79
2021/10/06 05:13:32;;;;;;;;;;;12.70;99.90;;;;;;4904745;29;20412;-77
2021/10/06 05:16:25;;;;;;;;;;;12.70;99.90;;;;;;4931882;28;19938;-78
2021/10/06 05:19:14;;;;;;;;;;;12.70;99.90;;;;;;4917499;29;19931;-79
2021/10/06 05:22:05;;;;;;;;;;;12.70;99.90;;;;;;4938669;28;19931;-79
2021/10/06 05:24:54;;;;;;;;;;;12.70;99.90;;;;;;4911801;29;19963;-79
2021/10/06 05:27:43;;;;;;;;;;;12.70;99.90;;;;;;4929144;29;19995;-79
2021/10/06 05:30:32;;;;;;;;;;;12.60;99.90;;;;;;4912445;29;19937;-78
2021/10/06 05:33:22;;;;;;;;;;;12.60;99.90;;;;;;4925138;29;19971;-78
2021/10/06 05:36:11;;;;;;;;;;;12.60;99.90;;;;;;4924301;29;19935;-78
2021/10/06 05:42:11;;;;;;;;;;;12.60;99.90;;;;;;4921953;29;19935;-78
2021/10/06 05:45:25;;;;;;;;;;;12.60;99.90;;;;;;4938544;28;20014;-78
2021/10/06 05:48:16;;;;;;;;;;;12.60;99.90;;;;;;4922908;29;20394;-76
2021/10/06 05:51:13;;;;;;;;;;;12.60;99.90;;;;;;4915118;29;19942;-78
2021/10/06 05:54:02;;;;;;;;;;;12.60;99.90;;;;;;4918029;28;19958;-78
2021/10/06 05:56:51;;;;;;;;;;;12.60;99.90;;;;;;4926740;28;19927;-78
2021/10/06 05:59:40;;;;;;;;;;;12.60;99.90;;;;;;4908829;29;19927;-77
2021/10/06 06:02:29;;;;;;;;;;;12.50;99.90;;;;;;4933370;28;20406;-78
2021/10/06 06:05:21;;;;;;;;;;;12.50;99.90;;;;;;4940866;29;19930;-78
2021/10/06 06:08:16;;;;;;;;;;;12.60;99.90;;;;;;4936299;29;19927;-78
2021/10/06 06:11:12;;;;;;;;;;;12.60;99.90;;;;;;4935504;29;19938;-78
2021/10/06 06:14:02;;;;;;;;;;;12.60;99.90;;;;;;4929378;29;19927;-77
2021/10/06 06:16:51;;;;;;;;;;;12.60;99.90;;;;;;4930151;28;19931;-77
2021/10/06 06:19:40;;;;;;;;;;;12.50;99.90;;;;;;4940576;29;19931;-77
2021/10/06 06:22:28;;;;;;;;;;;12.50;99.90;;;;;;4939885;29;19941;-77
2021/10/06 06:25:18;;;;;;;;;;;12.50;99.90;;;;;;4929420;29;19927;-78
2021/10/06 06:28:08;;;;;;;;;;;12.50;99.90;;;;;;4931338;29;19942;-77
2021/10/06 06:30:57;;;;;;;;;;;12.50;99.90;;;;;;4925581;28;19931;-77
2021/10/06 06:33:47;;;;;;;;;;;12.50;99.90;;;;;;4939380;28;20013;-77
2021/10/06 06:36:35;;;;;;;;;;;12.50;99.90;;;;;;4936021;29;19982;-78
2021/10/06 06:39:24;;;;;;;;;;;12.50;99.90;;;;;;4940852;28;19933;-77
2021/10/06 06:42:15;;;;;;;;;;;12.60;99.90;;;;;;4934476;29;19938;-78
2021/10/06 06:45:28;;;;;;;;;;;12.60;99.90;;;;;;4920569;29;19954;-77
2021/10/06 06:48:17;;;;;;;;;;;12.60;99.90;;;;;;4940238;29;19927;-78
2021/10/06 06:51:12;;;;;;;;;;;12.70;99.90;;;;;;4939068;28;19955;-77
2021/10/06 06:54:02;;;;;;;;;;;12.70;99.90;;;;;;4936133;28;19927;-76
2021/10/06 06:56:51;;;;;;;;;;;12.80;99.90;;;;;;4936400;29;20480;-77
2021/10/06 06:59:42;;;;;;;;;;;12.80;99.90;;;;;;4925706;29;20371;-77
2021/10/06 07:02:31;;;;;;;;;;;12.80;99.90;;;;;;4936889;29;20443;-77
2021/10/06 07:05:22;;;;;;;;;;;12.80;99.90;;;;;;4935505;28;20284;-77
2021/10/06 07:08:11;;;;;;;;;;;12.80;99.90;;;;;;4922910;29;19927;-78
2021/10/06 07:11:00;;;;;;;;;;;12.80;99.90;;;;;;4936302;29;19933;-77
2021/10/06 07:13:50;;;;;;;;;;;12.90;99.90;;;;;;4927720;29;19930;-77
2021/10/06 07:16:41;;;;;;;;;;;12.90;99.90;;;;;;4918750;29;20443;-78
2021/10/06 07:19:30;;;;;;;;;;;12.90;99.90;;;;;;4933119;29;19927;-77
2021/10/06 07:22:18;;;;;;;;;;;12.90;99.90;;;;;;4939074;28;19941;-77
2021/10/06 07:25:08;;;;;;;;;;;13.00;99.90;;;;;;4933701;29;20390;-77
2021/10/06 07:28:21;;;;;;;;;;;13.00;99.90;;;;;;4932182;29;19927;-77
2021/10/06 07:31:11;;;;;;;;;;;13.00;99.90;;;;;;4927415;29;19926;-78
2021/10/06 07:34:02;;;;;;;;;;;13.10;99.90;;;;;;4925220;29;19926;-77
2021/10/06 07:36:51;;;;;;;;;;;13.10;99.90;;;;;;4947104;29;19933;-78
2021/10/06 07:39:40;;;;;;;;;;;13.10;99.90;;;;;;4943834;29;19930;-77
2021/10/06 07:42:29;;;;;;;;;;;13.10;99.90;;;;;;4939221;29;19990;-78
2021/10/06 07:45:18;;;;;;;;;;;13.20;99.90;;;;;;4936170;29;19926;-78
2021/10/06 07:48:07;;;;;;;;;;;13.20;99.90;;;;;;4948028;29;19958;-78
2021/10/06 07:51:03;;;;;;;;;;;13.20;99.90;;;;;;4947940;28;19926;-77
2021/10/06 07:53:51;;;;;;;;;;;13.30;99.90;;;;;;4943531;29;19926;-78
2021/10/06 07:56:40;;;;;;;;;;;13.30;99.90;;;;;;4937447;29;19927;-77
2021/10/06 07:59:29;;;;;;;;;;;13.20;99.90;;;;;;4946086;28;19933;-78
2021/10/06 08:05:32;;;;;;;;;;;13.30;99.90;;;;;;4977172;23;19927;-80
2021/10/06 08:08:26;;;;;;;;;;;13.30;99.90;;;;;;4926414;29;19931;-80
2021/10/06 08:11:15;;;;;;;;;;;13.30;99.90;;;;;;4929137;28;19975;-80
2021/10/06 08:14:11;;;;;;;;;;;13.30;99.90;;;;;;4939458;28;19936;-79
2021/10/06 08:17:00;;;;;;;;;;;13.40;99.90;;;;;;4935537;28;20039;-79
2021/10/06 08:19:50;;;;;;;;;;;13.40;99.90;;;;;;4927078;29;19938;-79
2021/10/06 08:22:38;;;;;;;;;;;13.40;99.90;;;;;;4940639;28;19927;-79
2021/10/06 08:25:29;;;;;;;;;;;13.50;99.90;;;;;;4936799;28;19927;-79
2021/10/06 08:28:18;;;;;;;;;;;13.60;99.90;;;;;;4923196;29;20017;-80
2021/10/06 08:31:32;;;;;;;;;;;13.70;99.90;;;;;;4937940;28;20455;-79
2021/10/06 08:34:21;;;;;;;;;;;13.70;99.90;;;;;;4939800;29;19933;-80
2021/10/06 08:37:13;;;;;;;;;;;13.60;99.90;;;;;;4937931;28;20388;-79
2021/10/06 08:40:04;;;;;;;;;;;13.70;99.90;;;;;;4927498;29;19978;-79
2021/10/06 08:42:54;;;;;;;;;;;13.70;99.90;;;;;;4930697;29;19958;-80
2021/10/06 08:45:48;;;;;;;;;;;13.70;99.90;;;;;;4927454;28;19927;-80
2021/10/06 08:48:37;;;;;;;;;;;13.70;99.90;;;;;;4934825;29;19927;-80
2021/10/06 08:51:26;;;;;;;;;;;13.70;99.90;;;;;;4937934;29;19930;-79
2021/10/06 08:54:17;;;;;;;;;;;13.70;99.90;;;;;;4921107;29;19935;-80
2021/10/06 08:57:06;;;;;;;;;;;13.70;99.90;;;;;;4927772;29;20446;-80
2021/10/06 08:59:57;;;;;;;;;;;13.60;99.90;;;;;;4932161;28;20391;-80
2021/10/06 09:02:55;;;;;;;;;;;13.70;99.90;;;;;;4931068;29;19954;-79
2021/10/06 09:05:48;;;;;;;;;;;13.70;99.90;;;;;;4924030;29;19926;-80
2021/10/06 09:08:39;;;;;;;;;;;13.80;99.90;;;;;;4939208;28;20062;-79
2021/10/06 09:11:32;;;;;;;;;;;13.80;99.90;;;;;;4930638;28;19927;-80
2021/10/06 09:14:23;;;;;;;;;;;13.80;99.90;;;;;;4947318;29;19915;-80
2021/10/06 09:17:14;;;;;;;;;;;13.80;99.90;;;;;;4935228;28;19927;-80
2021/10/06 09:20:05;;;;;;;;;;;13.90;99.90;;;;;;4938900;29;19927;-80
2021/10/06 09:23:01;;;;;;;;;;;13.80;99.90;;;;;;4944656;28;19935;-80
2021/10/06 09:25:57;;;;;;;;;;;13.80;99.90;;;;;;4938135;28;19926;-80
2021/10/06 09:28:50;;;;;;;;;;;13.80;99.90;;;;;;4932035;29;19934;-80
2021/10/06 09:31:41;;;;;;;;;;;13.90;99.90;;;;;;4930963;28;20280;-80
2021/10/06 09:34:33;;;;;;;;;;;13.90;99.90;;;;;;4935895;29;19934;-80
2021/10/06 09:37:46;;;;;;;;;;;13.90;99.90;;;;;;4920721;29;19927;-80
2021/10/06 09:40:36;;;;;;;;;;;14.00;99.90;;;;;;4927973;29;19927;-80
2021/10/06 09:43:28;;;;;;;;;;;14.00;99.90;;;;;;4926330;28;19931;-80
2021/10/06 09:46:19;;;;;;;;;;;14.00;99.90;;;;;;4934503;29;19935;-79
2021/10/06 09:49:19;;;;;;;;;;;14.10;99.90;;;;;;4930439;28;19927;-79
2021/10/06 09:52:22;;;;;;;;;;;14.10;99.90;;;;;;4931978;29;19986;-80
2021/10/06 09:55:10;;;;;;;;;;;14.20;99.90;;;;;;4931406;29;19927;-80
2021/10/06 09:58:07;;;;;;;;;;;14.20;99.90;;;;;;4928719;29;19934;-80
2021/10/06 10:00:56;;;;;;;;;;;14.10;99.90;;;;;;4923323;28;20287;-80
2021/10/06 10:03:46;;;;;;;;;;;14.20;99.90;;;;;;4932751;28;19933;-80
2021/10/06 10:07:02;;;;;;;;;;;14.20;99.90;;;;;;4928112;28;20083;-80
2021/10/06 10:09:54;;;;;;;;;;;14.20;99.90;;;;;;4928902;29;19926;-80
2021/10/06 10:12:44;;;;;;;;;;;14.20;99.90;;;;;;4934814;28;19950;-80
2021/10/06 10:18:51;;;;;;;;;;;14.30;99.90;;;;;;4918375;29;19927;-79
2021/10/06 10:21:43;;;;;;;;;;;14.20;99.90;;;;;;4925412;29;19970;-80
2021/10/06 10:24:33;;;;;;;;;;;14.20;99.90;;;;;;4916516;29;19934;-80
2021/10/06 10:27:23;;;;;;;;;;;14.10;99.90;;;;;;4953941;23;20280;-78
2021/10/06 10:30:37;;;;;;;;;;;14.00;99.90;;;;;;4924517;29;19927;-78
2021/10/06 10:33:38;;;;;;;;;;;14.00;99.90;;;;;;4933903;29;19927;-79
2021/10/06 10:36:43;;;;;;;;;;;14.00;99.90;;;;;;4946597;29;20346;-80
2021/10/06 10:39:59;;;;;;;;;;;14.00;99.90;;;;;;4946933;28;20439;-78
2021/10/06 10:42:58;;;;;;;;;;;14.10;99.90;;;;;;4935879;29;19927;-79
2021/10/06 10:45:48;;;;;;;;;;;14.10;99.90;;;;;;4942522;29;19927;-78
2021/10/06 10:49:00;;;;;;;;;;;14.20;99.90;;;;;;4939854;28;19927;-78
2021/10/06 10:51:53;;;;;;;;;;;14.40;99.90;;;;;;4931687;28;19927;-79
2021/10/06 10:54:43;;;;;;;;;;;14.30;99.90;;;;;;4934100;28;19949;-79
2021/10/06 10:57:32;;;;;;;;;;;14.40;99.90;;;;;;4937575;29;19934;-79
2021/10/06 11:00:31;;;;;;;;;;;14.40;99.90;;;;;;4940109;28;19910;-79
2021/10/06 11:03:21;;;;;;;;;;;14.40;99.90;;;;;;4941304;28;19938;-79
2021/10/06 11:06:33;;;;;;;;;;;14.30;99.90;;;;;;4942896;29;19915;-79
2021/10/06 11:09:40;;;;;;;;;;;14.30;99.90;;;;;;4943581;28;19933;-80
2021/10/06 11:12:38;;;;;;;;;;;14.20;99.90;;;;;;4941774;28;19931;-78
2021/10/06 11:15:35;;;;;;;;;;;14.20;99.90;;;;;;4931778;28;19926;-79
2021/10/06 11:18:51;;;;;;;;;;;14.20;99.90;;;;;;4939123;29;19990;-79
2021/10/06 11:21:41;;;;;;;;;;;14.30;99.90;;;;;;4932756;29;19927;-79
2021/10/06 11:24:31;;;;;;;;;;;14.30;99.90;;;;;;4943776;29;19966;-79
2021/10/06 11:27:19;;;;;;;;;;;14.40;99.90;;;;;;4936838;29;19927;-79
2021/10/06 11:30:11;;;;;;;;;;;14.50;99.90;;;;;;4923201;29;19941;-79
2021/10/06 11:33:26;;;;;;;;;;;14.40;99.90;;;;;;4938203;29;19934;-78
2021/10/06 11:36:17;;;;;;;;;;;14.30;99.90;;;;;;4932443;28;20029;-78
2021/10/06 11:39:30;;;;;;;;;;;14.10;99.90;;;;;;4942731;29;20323;-78
2021/10/06 11:42:19;;;;;;;;;;;13.90;99.90;;;;;;4934375;29;20402;-78
2021/10/06 11:45:18;;;;;;;;;;;13.70;99.90;;;;;;4941483;29;19927;-79
2021/10/06 11:48:11;;;;;;;;;;;13.60;99.90;;;;;;4947828;28;19978;-78
2021/10/06 11:51:01;;;;;;;;;;;13.50;99.90;;;;;;4927311;29;19925;-79
2021/10/06 11:53:51;;;;;;;;;;;13.50;99.90;;;;;;4939177;29;20399;-79
2021/10/06 11:56:40;;;;;;;;;;;13.60;99.90;;;;;;4938568;29;19968;-79
2021/10/06 11:59:30;;;;;;;;;;;13.60;99.90;;;;;;4927348;29;19926;-79
2021/10/06 12:02:20;;;;;;;;;;;13.60;99.90;;;;;;4927351;29;19934;-79
2021/10/06 12:08:29;;;;;;;;;;;13.70;99.90;;;;;;4925908;29;20036;-80
2021/10/06 12:11:19;;;;;;;;;;;13.70;99.90;;;;;;4924334;29;20379;-80
2021/10/06 12:14:22;;;;;;;;;;;13.80;99.90;;;;;;4937575;29;19933;-80
2021/10/06 12:17:18;;;;;;;;;;;13.90;99.90;;;;;;4916998;28;19931;-80
2021/10/06 12:20:08;;;;;;;;;;;13.90;99.90;;;;;;4935800;29;20327;-80
2021/10/06 12:22:59;;;;;;;;;;;14.00;99.90;;;;;;4936262;28;19927;-80
2021/10/06 12:25:52;;;;;;;;;;;14.00;99.90;;;;;;4936610;29;19927;-80
2021/10/06 12:28:51;;;;;;;;;;;14.10;99.90;;;;;;4932427;28;19931;-80
2021/10/06 12:31:48;;;;;;;;;;;14.20;99.90;;;;;;4927207;28;19972;-80
2021/10/06 12:34:38;;;;;;;;;;;14.30;99.90;;;;;;4936469;29;20013;-80
2021/10/06 12:37:52;;;;;;;;;;;14.50;99.90;;;;;;4973849;23;19936;-79
2021/10/06 12:40:44;;;;;;;;;;;14.50;99.90;;;;;;4933675;28;19927;-78
2021/10/06 12:43:43;;;;;;;;;;;14.70;99.90;;;;;;4942921;29;20381;-79
2021/10/06 12:46:32;;;;;;;;;;;14.80;99.90;;;;;;4942667;28;19931;-79
2021/10/06 12:49:22;;;;;;;;;;;14.80;99.90;;;;;;4928927;29;20383;-79
2021/10/06 12:52:11;;;;;;;;;;;14.80;99.90;;;;;;4932107;29;19970;-79
2021/10/06 12:55:06;;;;;;;;;;;14.80;99.90;;;;;;4935940;28;19926;-79
2021/10/06 12:58:05;;;;;;;;;;;14.80;99.90;;;;;;4948726;28;20284;-79
2021/10/06 13:00:55;;;;;;;;;;;14.80;99.90;;;;;;4938003;28;19927;-78
2021/10/06 13:03:44;;;;;;;;;;;14.90;99.90;;;;;;4948229;29;20720;-79
2021/10/06 13:06:33;;;;;;;;;;;14.90;99.90;;;;;;4931530;29;20361;-79
2021/10/06 13:09:23;;;;;;;;;;;14.90;99.90;;;;;;4957155;28;19926;-79
2021/10/06 13:12:11;;;;;;;;;;;14.80;99.90;;;;;;4945991;29;19911;-79
2021/10/06 13:15:02;;;;;;;;;;;14.70;99.90;;;;;;4938815;29;19927;-79
2021/10/06 13:17:52;;;;;;;;;;;14.70;99.90;;;;;;4935879;29;19927;-79
2021/10/06 13:20:42;;;;;;;;;;;14.70;99.90;;;;;;4943039;28;19911;-79
2021/10/06 13:23:33;;;;;;;;;;;14.60;99.90;;;;;;4940452;29;19927;-79
2021/10/06 13:26:25;;;;;;;;;;;14.60;99.90;;;;;;4949162;29;19978;-79
2021/10/06 13:29:15;;;;;;;;;;;14.80;99.90;;;;;;4929122;29;19931;-77
2021/10/06 13:32:07;;;;;;;;;;;14.80;99.90;;;;;;4933821;28;20058;-73
2021/10/06 13:35:00;;;;;;;;;;;14.80;99.90;;;;;;4939289;29;19950;-78
2021/10/06 13:38:05;;;;;;;;;;;14.80;99.90;;;;;;5098017;23;19931;-80
2021/10/06 13:40:54;;;;;;;;;;;14.80;99.90;;;;;;4923803;29;19927;-76
2021/10/06 13:43:43;;;;;;;;;;;14.90;99.90;;;;;;4922842;28;20300;-76
2021/10/06 13:46:32;;;;;;;;;;;14.90;99.90;;;;;;4903283;29;20030;-76
2021/10/06 13:49:29;;;;;;;;;;;14.90;99.90;;;;;;4925423;29;19927;-77
2021/10/06 13:52:21;;;;;;;;;;;14.90;99.90;;;;;;4924014;29;19927;-75
2021/10/06 13:55:09;;;;;;;;;;;14.80;99.90;;;;;;4925405;29;19995;-77
2021/10/06 13:57:58;;;;;;;;;;;14.70;99.90;;;;;;4931147;29;19927;-79
2021/10/06 14:00:47;;;;;;;;;;;14.70;99.90;;;;;;4908847;29;19952;-77
2021/10/06 14:03:39;;;;;;;;;;;14.70;99.90;;;;;;4923966;29;19963;-77
2021/10/06 14:06:29;;;;;;;;;;;14.70;99.90;;;;;;4908572;29;19936;-77
2021/10/06 14:09:20;;;;;;;;;;;14.70;99.90;;;;;;4944067;23;19954;-80
2021/10/06 14:12:12;;;;;;;;;;;14.80;99.90;;;;;;4928106;28;19974;-81
2021/10/06 14:15:09;;;;;;;;;;;14.80;99.90;;;;;;4969724;23;19934;-77
2021/10/06 14:21:28;;;;;;;;;;;15.00;99.90;;;;;;4918055;29;20054;-79
2021/10/06 14:24:17;;;;;;;;;;;15.20;99.90;;;;;;4940400;29;19915;-79
2021/10/06 14:27:15;;;;;;;;;;;15.20;99.90;;;;;;4918032;29;20011;-80
2021/10/06 14:30:40;;;;;;;;;;;15.30;99.90;;;;;;4899334;29;19927;-80
2021/10/06 14:33:32;;;;;;;;;;;15.30;99.90;;;;;;4915729;29;19963;-80
2021/10/06 14:36:27;;;;;;;;;;;15.40;99.90;;;;;;4913912;29;20388;-80
2021/10/06 14:39:19;;;;;;;;;;;15.40;99.90;;;;;;4907756;29;19983;-80
2021/10/06 14:42:13;;;;;;;;;;;15.40;99.90;;;;;;4909395;29;20010;-79
2021/10/06 14:45:32;;;;;;;;;;;15.50;99.90;;;;;;4929118;29;19954;-80
2021/10/06 14:48:23;;;;;;;;;;;15.60;99.90;;;;;;4910686;29;19934;-79
2021/10/06 14:51:19;;;;;;;;;;;15.60;99.90;;;;;;4918022;29;19950;-80
2021/10/06 14:54:09;;;;;;;;;;;15.60;99.90;;;;;;4904553;29;19927;-80
2021/10/06 14:57:05;;;;;;;;;;;15.70;99.90;;;;;;4916544;29;19958;-80
2021/10/06 14:59:56;;;;;;;;;;;15.70;99.90;;;;;;4917545;29;19927;-80
2021/10/06 15:02:52;;;;;;;;;;;15.70;99.90;;;;;;4893415;29;19934;-79
2021/10/06 15:05:47;;;;;;;;;;;15.70;99.90;;;;;;4917015;29;19934;-79
2021/10/06 15:08:41;;;;;;;;;;;15.60;99.90;;;;;;4905954;29;19927;-79
2021/10/06 15:11:33;;;;;;;;;;;15.60;99.90;;;;;;4908903;29;19938;-80
2021/10/06 15:14:22;;;;;;;;;;;15.50;99.90;;;;;;4909251;29;20010;-80
2021/10/06 15:17:12;;;;;;;;;;;15.40;99.90;;;;;;4910056;29;19934;-80
2021/10/06 15:20:27;;;;;;;;;;;15.40;99.90;;;;;;4909110;29;19927;-80
2021/10/06 15:23:18;;;;;;;;;;;15.30;99.90;;;;;;4911973;29;20368;-82
2021/10/06 15:26:25;;;;;;;;;;;15.30;99.90;;;;;;4909081;29;20293;-79
2021/10/06 15:29:20;;;;;;;;;;;15.20;99.90;;;;;;4903265;29;19929;-79
2021/10/06 15:32:12;;;;;;;;;;;15.10;99.90;;;;;;4914770;29;20265;-79
2021/10/06 15:35:09;;;;;;;;;;;15.10;99.90;;;;;;4910192;28;19949;-79
2021/10/06 15:38:19;;;;;;;;;;;15.10;99.90;;;;;;4912485;29;19934;-79
2021/10/06 15:41:18;;;;;;;;;;;15.00;99.90;;;;;;4920632;29;19927;-79
2021/10/06 15:44:08;;;;;;;;;;;15.00;99.90;;;;;;4918212;29;19928;-78
2021/10/06 15:47:05;;;;;;;;;;;15.00;99.90;;;;;;4913397;29;19926;-78
2021/10/06 15:50:02;;;;;;;;;;;14.90;99.90;;;;;;4919548;29;19958;-79
2021/10/06 15:52:52;;;;;;;;;;;14.80;99.90;;;;;;4918364;29;20377;-79
2021/10/06 15:55:47;;;;;;;;;;;14.80;99.90;;;;;;4915178;29;19933;-79
2021/10/06 15:58:41;;;;;;;;;;;14.80;99.90;;;;;;4931975;29;19927;-79
2021/10/06 16:01:44;;;;;;;;;;;14.80;99.90;;;;;;4912480;29;19931;-78
2021/10/06 16:04:42;;;;;;;;;;;14.80;99.90;;;;;;4922996;29;19934;-79
2021/10/06 16:07:42;;;;;;;;;;;14.70;99.90;;;;;;4929376;29;20010;-79
2021/10/06 16:10:38;;;;;;;;;;;14.70;99.90;;;;;;4916455;29;19927;-78
2021/10/06 16:13:35;;;;;;;;;;;14.70;99.90;;;;;;4907062;29;20340;-80
2021/10/06 16:16:32;;;;;;;;;;;14.70;99.90;;;;;;4900427;29;19927;-79
2021/10/06 16:19:29;;;;;;;;;;;14.60;99.90;;;;;;4920395;29;19956;-78
2021/10/06 16:22:29;;;;;;;;;;;14.60;99.90;;;;;;4919742;29;19931;-79
2021/10/06 16:25:29;;;;;;;;;;;14.60;99.90;;;;;;4902565;29;19931;-79
2021/10/06 16:28:35;;;;;;;;;;;14.50;99.90;;;;;;4910921;29;19927;-78
2021/10/06 16:31:34;;;;;;;;;;;14.50;99.90;;;;;;4911360;29;19927;-79
2021/10/06 16:34:35;;;;;;;;;;;14.60;99.90;;;;;;4914677;29;19973;-78
2021/10/06 16:37:40;;;;;;;;;;;14.50;99.90;;;;;;4919966;29;19936;-78
2021/10/06 16:40:30;;;;;;;;;;;14.50;99.90;;;;;;4916806;29;20269;-78
2021/10/06 16:43:26;;;;;;;;;;;14.50;99.90;;;;;;4918677;29;20218;-78
2021/10/06 16:46:18;;;;;;;;;;;14.60;99.90;;;;;;4911951;29;19942;-78
2021/10/06 16:49:15;;;;;;;;;;;14.40;99.90;;;;;;4922013;29;19933;-79
2021/10/06 16:52:09;;;;;;;;;;;14.20;99.90;;;;;;4928734;29;20382;-78
2021/10/06 16:54:58;;;;;;;;;;;14.10;99.90;;;;;;4912968;29;21696;-78
2021/10/06 16:58:12;;;;;;;;;;;14.00;99.90;;;;;;4952419;29;19927;-78
2021/10/06 17:01:01;;;;;;;;;;;13.90;99.90;;;;;;4914423;29;20305;-79
2021/10/06 17:07:05;;;;;;;;;;;13.60;99.90;;;;;;4909007;29;20008;-79
2021/10/06 17:09:57;;;;;;;;;;;13.40;99.90;;;;;;4904908;29;19932;-79
2021/10/06 17:12:45;;;;;;;;;;;13.40;99.90;;;;;;4907990;29;20295;-79
2021/10/06 17:16:01;;;;;;;;;;;13.30;99.90;;;;;;4915628;29;20261;-79
2021/10/06 17:18:51;;;;;;;;;;;13.20;99.90;;;;;;4889361;29;20293;-79
2021/10/06 17:21:40;;;;;;;;;;;13.10;99.90;;;;;;4910034;29;20323;-79
2021/10/06 17:24:36;;;;;;;;;;;13.00;99.90;;;;;;4915394;29;20013;-79